Time;durP1;ratioP1;P1;durP2;ratioP2;P2;SDS_P1;SDS_P2;PMS_P1;PMS_P2;Temp;Humidity;BMP_temperature;BMP_pressure;BME280_temperature;BME280_humidity;BME280_pressure;Samples;Min_cycle;Max_cycle;Signal;HPM_P1;HPM_P2
2022/01/13 00:01:10;;;;;;;73.93;19.25;;;3.10;93.30;;;;;;5012712;28;20061;-75
2022/01/13 00:03:36;;;;;;;72.57;20.17;;;3.00;93.10;;;;;;5014960;28;20040;-75
2022/01/13 00:06:04;;;;;;;37.55;17.88;;;3.00;93.20;;;;;;5016671;28;20377;-76
2022/01/13 00:08:32;;;;;;;29.48;17.42;;;3.00;93.20;;;;;;5013324;28;20061;-76
2022/01/13 00:11:01;;;;;;;33.28;17.70;;;2.90;93.20;;;;;;5012066;28;20061;-78
2022/01/13 00:13:44;;;;;;;36.90;21.85;;;3.00;93.30;;;;;;5018347;28;20188;-75
2022/01/13 00:16:26;;;;;;;38.67;18.50;;;3.00;93.30;;;;;;5013636;28;20037;-76
2022/01/13 00:19:06;;;;;;;46.45;18.60;;;3.00;93.20;;;;;;5013278;28;20476;-76
2022/01/13 00:21:41;;;;;;;34.97;17.88;;;3.00;93.20;;;;;;5020532;28;20394;-74
2022/01/13 00:24:13;;;;;;;147.77;23.23;;;3.00;93.20;;;;;;5030360;28;20515;-77
2022/01/13 00:26:42;;;;;;;47.47;18.73;;;2.90;93.10;;;;;;5029056;28;20115;-75
2022/01/13 00:29:10;;;;;;;43.40;17.63;;;2.90;93.10;;;;;;5019276;28;20041;-76
2022/01/13 00:31:41;;;;;;;43.42;18.77;;;2.90;93.20;;;;;;5015223;28;20067;-76
2022/01/13 00:34:09;;;;;;;30.30;17.73;;;2.80;93.10;;;;;;5022683;28;20049;-76
2022/01/13 00:36:39;;;;;;;44.05;17.70;;;2.80;93.10;;;;;;5016242;28;20398;-77
2022/01/13 00:39:08;;;;;;;38.80;17.25;;;2.80;93.20;;;;;;5033571;28;20037;-76
2022/01/13 00:41:36;;;;;;;30.23;17.48;;;2.80;93.20;;;;;;5016111;28;20030;-76
2022/01/13 00:44:06;;;;;;;68.93;20.20;;;2.70;93.20;;;;;;5020382;28;20061;-76
2022/01/13 00:46:43;;;;;;;32.78;18.65;;;2.70;93.30;;;;;;5013705;28;20133;-76
2022/01/13 00:49:14;;;;;;;50.10;20.20;;;2.80;93.30;;;;;;5017827;28;20042;-76
2022/01/13 00:51:42;;;;;;;57.33;18.73;;;2.70;93.20;;;;;;5021484;28;20029;-78
2022/01/13 00:54:11;;;;;;;62.25;19.30;;;2.70;93.30;;;;;;5020659;28;20036;-75
2022/01/13 00:56:41;;;;;;;57.25;20.67;;;2.70;93.30;;;;;;5015930;28;20504;-75
2022/01/13 00:59:11;;;;;;;31.10;17.35;;;2.70;93.20;;;;;;5021809;28;20037;-75
2022/01/13 01:01:45;;;;;;;68.97;20.20;;;2.60;93.30;;;;;;5019662;28;20041;-75
2022/01/13 01:04:13;;;;;;;66.93;19.30;;;2.70;93.20;;;;;;5021449;28;20457;-77
2022/01/13 01:06:42;;;;;;;40.45;18.70;;;2.70;93.30;;;;;;5018996;28;20033;-76
2022/01/13 01:09:16;;;;;;;41.78;17.60;;;2.70;93.40;;;;;;5021917;28;20133;-77
2022/01/13 01:11:47;;;;;;;33.72;19.38;;;2.70;93.40;;;;;;5019688;28;20048;-76
2022/01/13 01:14:18;;;;;;;63.25;19.95;;;2.70;93.40;;;;;;5024261;28;20036;-75
2022/01/13 01:16:46;;;;;;;50.78;19.25;;;2.70;93.40;;;;;;5009608;28;20102;-75
2022/01/13 01:19:15;;;;;;;36.45;18.17;;;2.70;93.40;;;;;;5021086;28;20029;-76
2022/01/13 01:26:54;;;;;;;37.63;18.05;;;2.70;93.60;;;;;;5014879;28;20043;-76
2022/01/13 01:30:01;;;;;;;101.93;25.10;;;2.70;93.50;;;;;;5015368;28;20072;-76
2022/01/13 01:32:17;;;;;;;33.53;19.55;;;2.70;93.50;;;;;;5008205;28;20042;-76
2022/01/13 01:34:57;;;;;;;37.53;19.80;;;2.80;93.60;;;;;;5015121;28;20384;-77
2022/01/13 01:37:28;;;;;;;50.72;17.65;;;2.80;93.60;;;;;;5018053;28;20057;-75
2022/01/13 01:39:58;;;;;;;30.58;17.98;;;2.80;93.60;;;;;;5008812;28;20041;-77
2022/01/13 01:42:27;;;;;;;46.58;20.05;;;2.80;93.50;;;;;;5014125;28;20111;-76
2022/01/13 01:44:59;;;;;;;29.67;17.88;;;2.80;93.50;;;;;;5009977;28;20068;-75
2022/01/13 01:47:30;;;;;;;32.45;17.85;;;2.70;93.40;;;;;;5008289;28;20038;-77
2022/01/13 01:50:09;;;;;;;45.83;18.40;;;2.70;93.40;;;;;;5018513;28;20029;-76
2022/01/13 01:52:36;;;;;;;33.75;17.33;;;2.70;93.30;;;;;;5014197;28;20411;-76
2022/01/13 01:55:05;;;;;;;118.35;21.02;;;2.70;93.40;;;;;;5013865;28;20121;-77
2022/01/13 01:57:33;;;;;;;49.60;18.48;;;2.70;93.30;;;;;;5012667;28;20030;-76
2022/01/13 02:00:02;;;;;;;30.52;17.38;;;2.60;93.30;;;;;;5005476;28;20038;-75
2022/01/13 02:02:30;;;;;;;26.63;16.85;;;2.60;93.30;;;;;;5018191;28;20044;-76
2022/01/13 02:04:58;;;;;;;27.80;16.60;;;2.60;93.40;;;;;;5009437;28;20036;-76
2022/01/13 02:07:26;;;;;;;30.77;17.33;;;2.70;93.50;;;;;;5017230;28;20083;-75
2022/01/13 02:09:56;;;;;;;37.97;17.50;;;2.70;93.50;;;;;;5020036;28;20034;-77
2022/01/13 02:12:41;;;;;;;63.78;19.90;;;2.70;93.50;;;;;;5018531;28;20504;-77
2022/01/13 02:17:39;;;;;;;98.72;20.55;;;2.70;93.60;;;;;;5020031;28;20125;-75
2022/01/13 02:20:09;;;;;;;59.45;17.98;;;2.60;93.40;;;;;;5022715;28;20285;-78
2022/01/13 02:22:38;;;;;;;26.77;16.08;;;2.60;93.40;;;;;;5023932;28;20112;-77
2022/01/13 02:25:07;;;;;;;26.95;16.90;;;2.60;93.30;;;;;;5012285;28;20042;-77
2022/01/13 02:27:34;;;;;;;37.75;17.98;;;2.50;93.30;;;;;;5020449;28;20108;-77
2022/01/13 02:30:02;;;;;;;33.25;17.25;;;2.50;93.40;;;;;;5011976;28;20484;-77
2022/01/13 02:32:30;;;;;;;37.80;19.75;;;2.60;93.50;;;;;;5018456;28;20022;-77
2022/01/13 02:34:58;;;;;;;45.60;19.38;;;2.60;93.50;;;;;;5014463;28;20081;-79
2022/01/13 02:37:25;;;;;;;49.42;18.73;;;2.60;93.60;;;;;;5016003;28;20445;-78
2022/01/13 02:39:52;;;;;;;45.83;16.95;;;2.60;93.50;;;;;;5013699;28;20064;-77
2022/01/13 02:42:20;;;;;;;37.42;15.63;;;2.60;93.50;;;;;;5016017;28;20477;-76
2022/01/13 02:45:02;;;;;;;53.05;17.50;;;2.60;93.40;;;;;;5017958;28;20400;-80
2022/01/13 02:50:14;;;;;;;49.47;16.75;;;2.50;93.30;;;;;;5017481;28;20033;-77
2022/01/13 02:52:42;;;;;;;80.43;18.48;;;2.40;93.20;;;;;;5014081;28;20029;-78
2022/01/13 02:55:10;;;;;;;96.78;19.08;;;2.40;93.20;;;;;;5016092;28;20080;-78
2022/01/13 02:57:41;;;;;;;33.67;15.75;;;2.40;93.20;;;;;;5012975;28;20381;-77
2022/01/13 03:00:10;;;;;;;56.28;17.23;;;2.30;93.20;;;;;;5014954;28;20033;-78
2022/01/13 03:02:37;;;;;;;26.52;16.65;;;2.30;93.20;;;;;;5015489;28;20181;-76
2022/01/13 03:05:12;;;;;;;39.78;19.55;;;2.30;93.30;;;;;;5046655;28;20427;-77
2022/01/13 03:07:39;;;;;;;;;;;2.30;93.40;;;;;;5019173;28;20041;-77
2022/01/13 03:10:09;;;;;;;28.80;16.83;;;2.40;93.50;;;;;;5012051;28;20035;-76
2022/01/13 03:12:41;;;;;;;52.22;17.80;;;2.40;93.40;;;;;;5018344;28;20026;-76
2022/01/13 03:15:10;;;;;;;39.50;17.95;;;2.40;93.50;;;;;;5014394;28;20056;-77
2022/01/13 03:17:38;;;;;;;34.92;17.48;;;2.40;93.40;;;;;;5012220;28;20065;-76
2022/01/13 03:20:05;;;;;;;31.88;18.23;;;2.40;93.50;;;;;;5017306;28;20474;-75
2022/01/13 03:22:32;;;;;;;56.97;19.95;;;2.50;93.60;;;;;;5016264;28;20616;-76
2022/01/13 03:25:03;;;;;;;51.42;20.50;;;2.40;93.60;;;;;;5019704;28;20036;-76
2022/01/13 03:27:34;;;;;;;106.72;23.08;;;2.40;93.60;;;;;;5014580;28;20469;-77
2022/01/13 03:30:08;;;;;;;32.08;19.52;;;2.50;93.60;;;;;;5018846;28;20168;-75
2022/01/13 03:32:37;;;;;;;41.83;18.35;;;2.50;93.60;;;;;;5013964;28;20040;-76
2022/01/13 03:35:07;;;;;;;69.13;18.38;;;2.50;93.60;;;;;;5018012;28;20048;-76
2022/01/13 03:37:36;;;;;;;59.10;19.25;;;2.50;93.60;;;;;;5013617;28;20036;-76
2022/01/13 03:40:05;;;;;;;29.13;16.65;;;2.50;93.70;;;;;;5019369;28;20029;-77
2022/01/13 03:42:31;;;;;;;40.08;18.15;;;2.50;93.60;;;;;;5010440;28;20122;-77
2022/01/13 03:44:56;;;;;;;49.17;17.25;;;2.50;93.60;;;;;;5004702;28;20083;-76
2022/01/13 03:47:22;;;;;;;57.75;18.15;;;2.40;93.40;;;;;;5007830;28;20030;-78
2022/01/13 03:49:50;;;;;;;101.75;20.98;;;2.40;93.50;;;;;;5013862;28;20121;-76
2022/01/13 03:52:22;;;;;;;55.63;16.05;;;2.30;93.50;;;;;;5014618;28;20035;-77
2022/01/13 03:55:09;;;;;;;25.50;14.40;;;2.30;93.50;;;;;;5019534;28;20531;-75
2022/01/13 03:57:56;;;;;;;29.13;13.82;;;2.30;93.40;;;;;;5019859;28;20030;-77
2022/01/13 04:01:01;;;;;;;47.75;14.88;;;2.10;93.10;;;;;;5019221;28;20036;-78
2022/01/13 04:03:26;;;;;;;22.75;11.80;;;2.10;93.20;;;;;;5013714;28;20038;-76
2022/01/13 04:06:12;;;;;;;29.58;12.02;;;2.10;93.20;;;;;;5018069;28;20150;-77
2022/01/13 04:08:38;;;;;;;23.20;12.35;;;2.10;93.10;;;;;;5015882;28;20073;-75
2022/01/13 04:11:04;;;;;;;42.78;12.60;;;2.10;93.10;;;;;;5014258;28;20645;-76
2022/01/13 04:13:55;;;;;;;21.85;12.35;;;2.10;93.00;;;;;;5018994;28;20087;-76
2022/01/13 04:16:24;;;;;;;32.08;13.00;;;2.10;93.00;;;;;;5013236;28;20072;-77
2022/01/13 04:18:51;;;;;;;29.23;12.57;;;2.10;93.00;;;;;;5018767;28;20120;-77
2022/01/13 04:21:18;;;;;;;28.88;12.30;;;2.10;93.00;;;;;;5016932;28;20116;-75
2022/01/13 04:23:44;;;;;;;49.97;13.77;;;2.10;93.00;;;;;;5019768;28;20103;-76
2022/01/13 04:26:10;;;;;;;74.18;15.82;;;2.10;93.00;;;;;;5015086;28;20038;-77
2022/01/13 04:28:37;;;;;;;40.47;14.02;;;2.00;92.80;;;;;;5018221;28;20026;-75
2022/01/13 04:31:03;;;;;;;21.67;13.20;;;2.00;92.90;;;;;;5012561;28;20095;-75
2022/01/13 04:33:35;;;;;;;29.55;13.50;;;2.00;92.90;;;;;;5019770;28;20469;-78
2022/01/13 04:36:05;;;;;;;33.03;13.30;;;2.10;92.90;;;;;;5002108;28;20484;-74
2022/01/13 04:38:31;;;;;;;61.70;16.42;;;2.10;92.90;;;;;;5000500;28;20034;-74
2022/01/13 04:40:59;;;;;;;52.33;14.77;;;2.10;92.90;;;;;;5013896;28;20025;-75
2022/01/13 04:43:28;;;;;;;35.45;12.98;;;2.10;92.80;;;;;;5017868;28;20094;-77
2022/01/13 04:45:54;;;;;;;30.00;12.95;;;2.10;92.80;;;;;;5017226;28;20038;-76
2022/01/13 04:48:20;;;;;;;31.40;14.57;;;2.00;92.90;;;;;;5018492;28;20424;-76
2022/01/13 04:50:45;;;;;;;68.57;17.80;;;2.00;92.90;;;;;;5019133;28;20473;-77
2022/01/13 04:53:12;;;;;;;46.60;15.80;;;2.00;93.00;;;;;;5019293;28;20453;-78
2022/01/13 04:55:38;;;;;;;34.03;15.13;;;2.00;93.20;;;;;;5017459;28;20037;-77
2022/01/13 04:58:06;;;;;;;40.33;15.73;;;2.10;93.10;;;;;;5018643;28;20434;-77
2022/01/13 05:00:33;;;;;;;26.02;14.90;;;2.10;93.10;;;;;;5017306;28;20038;-78
2022/01/13 05:02:59;;;;;;;26.67;15.00;;;2.20;93.10;;;;;;5015503;28;20498;-77
2022/01/13 05:05:26;;;;;;;26.05;15.30;;;2.10;93.10;;;;;;5017718;28;20449;-77
2022/01/13 05:07:52;;;;;;;57.15;16.65;;;2.20;93.10;;;;;;5022311;28;20607;-77
2022/01/13 05:10:18;;;;;;;26.35;14.48;;;2.20;93.10;;;;;;5020593;28;20026;-77
2022/01/13 05:12:46;;;;;;;28.50;16.10;;;2.20;93.10;;;;;;5020224;28;20479;-78
2022/01/13 05:15:18;;;;;;;66.97;18.92;;;2.20;93.10;;;;;;5016278;28;20018;-78
2022/01/13 05:20:15;;;;;;;41.15;14.98;;;2.30;93.00;;;;;;5021940;28;20449;-76
2022/01/13 05:22:41;;;;;;;36.05;15.40;;;2.20;92.90;;;;;;5022325;28;20046;-78
2022/01/13 05:25:07;;;;;;;54.63;14.32;;;2.20;92.90;;;;;;5000583;28;20029;-76
2022/01/13 05:27:33;;;;;;;44.70;14.07;;;2.10;92.90;;;;;;5018458;28;20048;-77
2022/01/13 05:30:01;;;;;;;65.10;14.68;;;2.10;92.90;;;;;;5022225;28;20029;-77
2022/01/13 05:32:27;;;;;;;32.92;14.38;;;2.10;92.90;;;;;;5010708;28;20112;-79
2022/01/13 05:34:52;;;;;;;36.90;14.18;;;2.10;92.90;;;;;;5025615;28;20472;-77
2022/01/13 05:37:18;;;;;;;39.80;14.02;;;2.10;92.90;;;;;;5030611;28;20493;-77
2022/01/13 05:39:44;;;;;;;36.55;13.80;;;2.10;93.00;;;;;;5028116;28;20044;-76
2022/01/13 05:42:09;;;;;;;23.38;12.38;;;2.10;92.90;;;;;;5007900;28;20041;-76
2022/01/13 05:44:38;;;;;;;25.27;12.45;;;2.10;92.90;;;;;;5017371;28;20033;-76
2022/01/13 05:47:09;;;;;;;41.47;13.75;;;2.10;93.00;;;;;;5015581;28;20529;-75
2022/01/13 05:49:36;;;;;;;20.55;12.75;;;2.00;93.00;;;;;;5024638;28;20031;-76
2022/01/13 05:52:02;;;;;;;145.35;21.77;;;2.10;92.90;;;;;;5014745;28;20095;-77
2022/01/13 05:54:28;;;;;;;61.08;15.85;;;2.10;92.80;;;;;;5032885;28;20049;-76
2022/01/13 05:56:53;;;;;;;21.83;13.10;;;2.10;92.80;;;;;;5011842;28;20540;-77
2022/01/13 05:59:21;;;;;;;23.05;12.70;;;2.00;92.90;;;;;;5016594;28;20033;-76
2022/01/13 06:01:46;;;;;;;56.25;16.55;;;2.00;93.00;;;;;;5018514;28;20041;-74
2022/01/13 06:04:12;;;;;;;27.58;14.20;;;2.00;93.00;;;;;;5010300;28;20097;-74
2022/01/13 06:06:38;;;;;;;77.63;18.35;;;2.10;93.00;;;;;;5018610;28;20029;-75
2022/01/13 06:09:03;;;;;;;66.18;18.58;;;2.00;92.90;;;;;;5006064;28;20041;-74
2022/01/13 06:11:37;;;;;;;38.75;12.30;;;2.00;93.00;;;;;;5005540;28;20500;-75
2022/01/13 06:14:03;;;;;;;22.88;14.02;;;2.00;93.00;;;;;;5000076;28;20131;-75
2022/01/13 06:16:29;;;;;;;55.65;16.10;;;2.00;93.00;;;;;;5013929;28;20611;-76
2022/01/13 06:18:55;;;;;;;38.20;14.30;;;2.00;93.10;;;;;;5015283;28;20033;-78
2022/01/13 06:21:20;;;;;;;53.80;15.93;;;2.00;93.10;;;;;;5009754;28;20045;-77
2022/01/13 06:23:46;;;;;;;64.85;18.30;;;2.10;93.20;;;;;;5017112;28;21365;-77
2022/01/13 06:26:11;;;;;;;49.28;14.82;;;2.10;93.10;;;;;;5018025;28;20377;-77
2022/01/13 06:28:37;;;;;;;60.90;17.58;;;1.90;92.90;;;;;;5017725;28;20033;-78
2022/01/13 06:31:03;;;;;;;38.05;14.48;;;2.00;93.00;;;;;;5015624;28;20187;-77
2022/01/13 06:33:29;;;;;;;37.72;14.93;;;2.00;93.10;;;;;;5020949;28;20082;-77
2022/01/13 06:35:55;;;;;;;35.60;16.55;;;2.00;93.20;;;;;;5018504;28;20045;-77
2022/01/13 06:38:23;;;;;;;26.40;14.40;;;2.10;93.10;;;;;;5014851;28;20109;-76
2022/01/13 06:40:49;;;;;;;31.95;15.57;;;2.10;93.10;;;;;;5013212;28;20042;-76
2022/01/13 06:43:15;;;;;;;57.55;17.13;;;2.10;93.10;;;;;;5012758;28;20036;-77
2022/01/13 06:45:41;;;;;;;57.08;17.42;;;2.10;93.10;;;;;;5018551;28;20034;-77
2022/01/13 06:48:07;;;;;;;80.88;19.52;;;2.10;93.10;;;;;;5010279;28;20080;-76
2022/01/13 06:50:33;;;;;;;40.78;16.90;;;2.10;93.10;;;;;;5013188;28;20114;-77
2022/01/13 06:52:59;;;;;;;57.17;18.48;;;2.00;93.20;;;;;;5016588;28;20034;-77
2022/01/13 06:55:25;;;;;;;32.97;17.50;;;2.10;93.20;;;;;;5017847;28;20028;-76
2022/01/13 06:57:52;;;;;;;56.15;19.08;;;2.00;93.20;;;;;;5016827;28;20047;-77
2022/01/13 07:00:18;;;;;;;45.58;16.60;;;2.10;93.30;;;;;;5014221;28;20037;-78
2022/01/13 07:02:43;;;;;;;33.65;16.85;;;2.00;93.20;;;;;;5026005;28;20113;-77
2022/01/13 07:05:09;;;;;;;147.65;24.40;;;1.90;93.00;;;;;;5011405;28;20032;-77
2022/01/13 07:07:39;;;;;;;35.13;15.90;;;1.90;93.10;;;;;;5015747;28;20056;-77
2022/01/13 07:10:06;;;;;;;28.65;15.90;;;1.80;93.10;;;;;;5014802;28;20030;-77
2022/01/13 07:12:32;;;;;;;32.33;15.52;;;1.90;93.20;;;;;;5026088;28;20072;-78
2022/01/13 07:14:57;;;;;;;30.13;15.75;;;1.90;93.30;;;;;;5015727;28;20029;-77
2022/01/13 07:17:24;;;;;;;36.40;17.02;;;2.00;93.30;;;;;;5016815;28;20111;-77
2022/01/13 07:19:51;;;;;;;31.73;15.70;;;2.00;93.20;;;;;;5015364;28;20578;-77
2022/01/13 07:22:18;;;;;;;32.28;17.30;;;1.90;93.10;;;;;;5012230;28;20471;-75
2022/01/13 07:24:44;;;;;;;34.17;17.88;;;1.90;93.10;;;;;;5027245;28;20030;-78
2022/01/13 07:27:10;;;;;;;32.13;16.83;;;2.00;93.20;;;;;;5015246;28;20033;-75
2022/01/13 07:29:36;;;;;;;34.00;16.95;;;2.00;93.20;;;;;;5016339;28;20133;-78
2022/01/13 07:32:02;;;;;;;37.35;18.17;;;2.00;93.30;;;;;;5030195;28;20767;-76
2022/01/13 07:34:27;;;;;;;45.85;17.20;;;1.90;93.20;;;;;;5027804;28;20449;-81
2022/01/13 07:36:53;;;;;;;30.67;17.55;;;2.00;93.30;;;;;;5013899;28;20053;-76
2022/01/13 07:39:19;;;;;;;34.15;18.38;;;2.00;93.10;;;;;;5007668;28;20567;-77
2022/01/13 07:41:45;;;;;;;62.60;18.52;;;2.00;93.20;;;;;;5012886;28;20092;-79
2022/01/13 07:44:10;;;;;;;78.53;19.95;;;1.90;93.10;;;;;;5007245;28;20034;-78
2022/01/13 07:46:36;;;;;;;33.78;16.85;;;1.90;93.10;;;;;;5004407;28;20121;-76
2022/01/13 07:49:02;;;;;;;63.00;18.08;;;1.90;93.10;;;;;;5002611;28;20500;-78
2022/01/13 07:51:29;;;;;;;42.30;19.13;;;1.90;93.10;;;;;;5011187;28;20037;-79
2022/01/13 07:53:56;;;;;;;40.10;16.95;;;1.90;93.10;;;;;;5013240;28;20034;-76
2022/01/13 07:56:21;;;;;;;35.10;17.10;;;1.80;92.90;;;;;;5012924;28;20044;-74
2022/01/13 07:58:47;;;;;;;35.55;17.92;;;1.80;93.00;;;;;;5009914;28;20033;-75
2022/01/13 08:01:13;;;;;;;47.45;22.20;;;1.80;93.00;;;;;;5009744;28;20534;-75
2022/01/13 08:03:39;;;;;;;39.20;19.27;;;1.90;93.10;;;;;;5015709;28;20121;-74
2022/01/13 08:06:05;;;;;;;38.10;19.27;;;1.90;93.10;;;;;;5019273;28;20026;-75
2022/01/13 08:08:32;;;;;;;39.15;19.05;;;1.90;93.10;;;;;;5012807;28;20038;-75
2022/01/13 08:10:58;;;;;;;54.38;18.80;;;2.00;93.20;;;;;;5011903;28;20270;-74
2022/01/13 08:13:24;;;;;;;88.25;24.02;;;2.00;93.20;;;;;;5008666;28;20022;-78
2022/01/13 08:15:54;;;;;;;88.00;20.02;;;2.00;93.00;;;;;;5011112;28;20502;-76
2022/01/13 08:21:04;;;;;;;33.47;18.17;;;1.90;93.00;;;;;;5015147;28;20036;-75
2022/01/13 08:23:31;;;;;;;54.83;18.50;;;2.00;92.90;;;;;;5015314;28;20404;-75
2022/01/13 08:25:57;;;;;;;35.00;18.63;;;1.90;92.80;;;;;;5008631;28;20034;-74
2022/01/13 08:28:26;;;;;;;59.05;19.60;;;1.90;92.90;;;;;;5017252;28;20046;-77
2022/01/13 08:30:51;;;;;;;39.40;19.52;;;1.90;92.90;;;;;;5013418;28;20030;-75
2022/01/13 08:33:22;;;;;;;40.60;19.58;;;2.00;92.70;;;;;;5019841;28;20091;-77
2022/01/13 08:35:49;;;;;;;67.43;22.17;;;2.00;92.80;;;;;;5018558;28;20085;-79
2022/01/13 08:38:19;;;;;;;42.45;18.30;;;1.90;92.70;;;;;;5013877;28;20061;-80
2022/01/13 08:40:47;;;;;;;64.78;19.10;;;1.90;92.80;;;;;;5019640;28;20046;-77
2022/01/13 08:43:15;;;;;;;51.05;19.80;;;2.00;92.80;;;;;;5020587;28;20037;-82
2022/01/13 08:45:44;;;;;;;53.97;22.75;;;2.00;92.80;;;;;;5021005;28;20046;-75
2022/01/13 08:48:10;;;;;;;58.10;22.10;;;2.00;92.70;;;;;;5020631;28;20121;-76
2022/01/13 08:50:36;;;;;;;49.55;22.85;;;2.00;92.60;;;;;;5021361;28;20033;-76
2022/01/13 08:53:03;;;;;;;41.15;22.23;;;2.00;92.40;;;;;;5021099;28;20130;-75
2022/01/13 08:55:29;;;;;;;47.97;23.48;;;2.00;92.40;;;;;;5020120;28;20358;-74
2022/01/13 08:57:54;;;;;;;79.28;28.83;;;2.10;92.60;;;;;;5018491;28;20495;-74
2022/01/13 09:00:21;;;;;;;41.75;25.33;;;1.90;92.30;;;;;;5015346;28;20041;-76
2022/01/13 09:02:47;;;;;;;37.30;21.65;;;2.00;92.50;;;;;;5020378;28;20053;-75
2022/01/13 09:05:15;;;;;;;40.50;20.55;;;2.10;92.60;;;;;;5014197;28;20034;-79
2022/01/13 09:07:42;;;;;;;39.83;19.55;;;2.10;92.50;;;;;;5022262;28;20080;-76
2022/01/13 09:10:10;;;;;;;40.72;17.92;;;2.10;92.50;;;;;;5019953;28;20603;-75
2022/01/13 09:12:36;;;;;;;50.53;20.20;;;2.10;92.30;;;;;;5037632;28;20472;-75
2022/01/13 09:15:14;;;;;;;62.30;22.45;;;2.10;92.30;;;;;;5000863;28;20033;-73
2022/01/13 09:17:42;;;;;;;46.53;19.63;;;2.10;92.20;;;;;;5016498;28;20064;-73
2022/01/13 09:20:09;;;;;;;57.22;18.38;;;2.10;92.30;;;;;;5016415;28;20033;-74
2022/01/13 09:22:35;;;;;;;37.53;17.98;;;2.10;92.30;;;;;;5018750;28;20068;-74
2022/01/13 09:25:01;;;;;;;46.05;17.45;;;2.20;92.30;;;;;;5016757;28;20041;-77
2022/01/13 09:27:27;;;;;;;53.47;19.90;;;2.10;92.00;;;;;;5009381;28;20041;-78
2022/01/13 09:29:53;;;;;;;32.03;17.88;;;2.10;92.00;;;;;;5020275;28;20057;-75
2022/01/13 09:32:18;;;;;;;38.55;19.20;;;2.20;92.10;;;;;;5020931;28;20505;-73
2022/01/13 09:34:44;;;;;;;62.03;20.08;;;2.20;92.10;;;;;;5014752;28;20104;-78
2022/01/13 09:37:11;;;;;;;43.53;19.65;;;2.30;92.20;;;;;;5019707;28;20396;-76
2022/01/13 09:39:37;;;;;;;33.30;16.55;;;2.30;92.10;;;;;;5004452;28;20042;-77
2022/01/13 09:42:05;;;;;;;35.05;18.98;;;2.30;92.10;;;;;;4999876;28;20446;-79
2022/01/13 09:44:31;;;;;;;32.50;17.20;;;2.30;91.90;;;;;;5003405;28;20097;-75
2022/01/13 09:46:57;;;;;;;30.23;17.13;;;2.30;92.00;;;;;;5016909;28;20033;-74
2022/01/13 09:49:23;;;;;;;42.58;18.38;;;2.40;92.00;;;;;;5018018;28;20025;-77
2022/01/13 09:51:49;;;;;;;32.85;14.80;;;2.40;91.80;;;;;;5020556;28;20592;-72
2022/01/13 09:54:16;;;;;;;40.30;15.98;;;2.20;91.40;;;;;;5021662;28;20068;-72
2022/01/13 09:56:42;;;;;;;26.67;15.20;;;2.40;91.80;;;;;;5016872;28;20528;-73
2022/01/13 09:59:08;;;;;;;39.33;15.27;;;2.40;91.70;;;;;;5015770;28;20093;-77
2022/01/13 10:01:34;;;;;;;42.47;17.05;;;2.40;91.70;;;;;;5015358;28;20282;-75
2022/01/13 10:04:00;;;;;;;37.22;16.15;;;2.40;91.70;;;;;;5018906;28;20036;-74
2022/01/13 10:06:25;;;;;;;42.58;16.20;;;2.60;91.90;;;;;;5019452;28;20439;-75
2022/01/13 10:08:55;;;;;;;31.58;15.30;;;2.60;91.70;;;;;;5017942;28;20109;-75
2022/01/13 10:11:27;;;;;;;34.22;16.00;;;2.70;91.70;;;;;;5019421;28;20336;-76
2022/01/13 10:14:15;;;;;;;34.00;17.70;;;2.70;91.70;;;;;;5019966;28;20152;-77
2022/01/13 10:16:47;;;;;;;34.95;17.67;;;2.70;91.60;;;;;;5016601;28;20047;-74
2022/01/13 10:19:37;;;;;;;34.55;18.13;;;2.80;91.60;;;;;;5014546;28;20053;-74
2022/01/13 10:22:21;;;;;;;39.63;18.85;;;2.90;91.60;;;;;;5020405;28;20253;-76
2022/01/13 10:24:52;;;;;;;32.85;17.75;;;3.00;91.60;;;;;;5018967;28;20369;-74
2022/01/13 10:27:21;;;;;;;42.63;18.58;;;3.10;91.60;;;;;;5018376;28;20064;-74
2022/01/13 10:29:56;;;;;;;47.92;19.60;;;3.10;91.20;;;;;;5021139;28;20041;-75
2022/01/13 10:32:24;;;;;;;32.58;18.98;;;3.10;91.10;;;;;;5014979;28;20037;-73
2022/01/13 10:34:57;;;;;;;34.78;20.20;;;3.10;91.40;;;;;;5021279;28;20049;-75
2022/01/13 10:37:37;;;;;;;38.63;19.75;;;3.10;91.10;;;;;;5021896;28;20021;-74
2022/01/13 10:40:14;;;;;;;34.92;20.00;;;3.20;91.20;;;;;;5020125;28;20038;-75
2022/01/13 10:45:17;;;;;;;37.00;21.95;;;3.40;91.30;;;;;;5021589;28;20041;-75
2022/01/13 10:48:08;;;;;;;50.78;23.50;;;3.50;91.30;;;;;;5021398;28;20045;-75
2022/01/13 10:50:54;;;;;;;37.85;20.70;;;3.50;91.00;;;;;;5020227;28;20449;-75
2022/01/13 10:53:26;;;;;;;60.83;23.98;;;3.50;90.70;;;;;;5016615;28;20065;-75
2022/01/13 10:55:56;;;;;;;40.83;22.58;;;3.60;90.90;;;;;;5015750;28;20502;-73
2022/01/13 10:58:31;;;;;;;46.97;24.00;;;3.60;90.70;;;;;;5010451;28;20041;-75
2022/01/13 11:00:59;;;;;;;45.10;23.88;;;3.60;90.70;;;;;;5016815;28;20145;-74
2022/01/13 11:03:29;;;;;;;53.88;23.88;;;3.70;90.60;;;;;;5017008;28;20034;-75
2022/01/13 11:06:06;;;;;;;35.72;21.67;;;3.70;90.30;;;;;;5013517;28;20037;-74
2022/01/13 11:08:40;;;;;;;46.47;24.55;;;3.80;90.20;;;;;;5027793;28;20475;-73
2022/01/13 11:11:15;;;;;;;41.45;23.17;;;3.80;90.20;;;;;;5032588;28;20116;-73
2022/01/13 11:13:54;;;;;;;42.55;24.15;;;3.80;90.10;;;;;;5030810;28;20057;-73
2022/01/13 11:16:21;;;;;;;52.35;23.70;;;3.90;90.10;;;;;;5032064;28;20033;-73
2022/01/13 11:18:49;;;;;;;52.72;25.55;;;3.80;90.00;;;;;;5029219;28;20029;-79
2022/01/13 11:21:15;;;;;;;45.38;25.83;;;3.80;90.30;;;;;;5020359;28;20500;-75
2022/01/13 11:23:45;;;;;;;48.75;26.92;;;3.90;90.40;;;;;;5017939;28;20595;-76
2022/01/13 11:26:13;;;;;;;47.97;24.48;;;3.90;90.30;;;;;;5011439;28;20424;-76
2022/01/13 11:28:40;;;;;;;47.50;26.02;;;4.00;90.20;;;;;;5015058;28;20111;-75
2022/01/13 11:31:10;;;;;;;48.25;24.75;;;4.10;90.40;;;;;;5012353;28;20086;-77
2022/01/13 11:33:38;;;;;;;51.78;26.63;;;4.10;90.30;;;;;;5012421;28;20064;-76
2022/01/13 11:36:08;;;;;;;50.15;25.13;;;4.00;89.90;;;;;;5011925;28;20025;-76
2022/01/13 11:38:34;;;;;;;59.58;28.35;;;4.10;90.10;;;;;;5013696;28;20499;-76
2022/01/13 11:41:03;;;;;;;51.78;25.63;;;4.10;90.30;;;;;;5013626;28;21878;-75
2022/01/13 11:43:41;;;;;;;43.33;24.90;;;4.10;89.60;;;;;;5012566;28;20034;-74
2022/01/13 11:46:19;;;;;;;49.55;25.63;;;4.10;89.70;;;;;;5012603;28;20037;-74
2022/01/13 11:49:10;;;;;;;55.40;25.38;;;4.10;89.90;;;;;;5012035;28;20186;-77
2022/01/13 11:52:12;;;;;;;55.25;26.85;;;4.10;89.90;;;;;;5012507;28;20473;-76
2022/01/13 11:54:39;;;;;;;59.40;25.50;;;4.10;89.90;;;;;;5010029;28;20049;-74
2022/01/13 11:57:25;;;;;;;45.35;24.27;;;4.10;89.90;;;;;;5007697;28;20445;-76
2022/01/13 12:00:00;;;;;;;48.15;26.17;;;4.20;90.20;;;;;;5011205;28;20041;-72
2022/01/13 12:02:29;;;;;;;58.35;29.08;;;4.30;90.20;;;;;;5012954;28;20473;-74
2022/01/13 12:05:09;;;;;;;50.75;28.52;;;4.20;90.00;;;;;;5010502;28;20053;-74
2022/01/13 12:07:38;;;;;;;56.00;28.55;;;4.30;89.90;;;;;;5013017;28;20072;-75
2022/01/13 12:10:07;;;;;;;58.85;29.17;;;4.40;90.20;;;;;;5023367;28;20444;-76
2022/01/13 12:12:34;;;;;;;55.20;29.52;;;4.40;89.90;;;;;;5009146;28;20042;-73
2022/01/13 12:15:21;;;;;;;57.60;30.38;;;4.30;89.90;;;;;;5015208;28;20104;-73
2022/01/13 12:17:57;;;;;;;66.95;31.45;;;4.40;90.30;;;;;;5019938;28;20034;-75
2022/01/13 12:23:43;;;;;;;65.75;32.28;;;4.50;90.40;;;;;;5014090;28;20238;-72
2022/01/13 12:26:33;;;;;;;68.32;33.65;;;4.60;90.40;;;;;;5010342;28;20049;-74
2022/01/13 12:29:18;;;;;;;70.55;33.88;;;4.50;90.20;;;;;;5015499;28;20053;-77
2022/01/13 12:31:57;;;;;;;71.03;33.97;;;4.50;90.20;;;;;;5017108;28;20045;-74
2022/01/13 12:34:32;;;;;;;74.88;34.20;;;4.50;90.00;;;;;;5023400;28;20224;-76
2022/01/13 12:37:13;;;;;;;58.42;32.50;;;4.60;90.30;;;;;;5023480;28;20188;-75
2022/01/13 12:39:58;;;;;;;75.13;34.33;;;4.60;90.30;;;;;;5024726;28;20458;-77
2022/01/13 12:42:41;;;;;;;89.28;33.72;;;4.60;90.30;;;;;;5018197;28;20064;-77
2022/01/13 12:45:28;;;;;;;66.68;33.67;;;4.70;90.20;;;;;;5018722;28;20468;-75
2022/01/13 12:48:01;;;;;;;61.97;31.98;;;4.70;90.10;;;;;;5022521;28;20030;-75
2022/01/13 12:50:46;;;;;;;80.70;35.95;;;4.70;89.80;;;;;;5022655;28;20441;-74
2022/01/13 12:53:20;;;;;;;60.97;33.42;;;4.70;90.00;;;;;;5017701;28;20492;-76
2022/01/13 12:55:53;;;;;;;66.53;34.38;;;4.70;89.90;;;;;;5023910;28;20042;-73
2022/01/13 12:58:25;;;;;;;72.05;33.80;;;4.80;90.10;;;;;;5018764;28;20037;-74
2022/01/13 13:00:50;;;;;;;77.35;36.72;;;4.80;90.20;;;;;;5022355;28;20032;-73
2022/01/13 13:03:18;;;;;;;73.78;36.67;;;4.90;90.20;;;;;;5023903;28;20025;-72
2022/01/13 13:05:46;;;;;;;70.30;37.35;;;4.90;90.30;;;;;;5020633;28;20032;-72
2022/01/13 13:08:18;;;;;;;77.18;34.38;;;4.90;90.20;;;;;;5017020;28;20037;-73
2022/01/13 13:10:50;;;;;;;65.05;34.38;;;5.10;90.20;;;;;;5010866;28;20469;-77
2022/01/13 13:13:18;;;;;;;70.18;39.70;;;5.00;89.90;;;;;;5017704;28;20567;-76